Time;durP1;ratioP1;P1;durP2;ratioP2;P2;SDS_P1;SDS_P2;PMS_P1;PMS_P2;Temp;Humidity;BMP_temperature;BMP_pressure;BME280_temperature;BME280_humidity;BME280_pressure;Samples;Min_cycle;Max_cycle;Signal;HPM_P1;HPM_P2
2022/07/11 00:00:14;;;;;;;4.00;2.13;;;10.40;90.90;;;;;;4211832;28;20674;-72
2022/07/11 00:02:15;;;;;;;2.13;1.93;;;10.30;90.90;;;;;;4211185;28;20177;-72
2022/07/11 00:04:16;;;;;;;3.07;2.00;;;10.20;91.30;;;;;;4211958;28;20427;-73
2022/07/11 00:06:16;;;;;;;2.60;2.10;;;10.20;91.30;;;;;;4211877;28;20788;-72
2022/07/11 00:08:17;;;;;;;5.07;1.80;;;10.20;91.30;;;;;;4212032;28;20183;-72
2022/07/11 00:10:18;;;;;;;2.97;2.10;;;10.20;91.50;;;;;;4211764;28;20285;-72
2022/07/11 00:12:20;;;;;;;4.73;2.53;;;10.10;91.70;;;;;;4211068;28;20174;-72
2022/07/11 00:14:21;;;;;;;3.70;1.97;;;10.10;91.70;;;;;;4211984;28;20193;-72
2022/07/11 00:16:22;;;;;;;2.27;1.80;;;10.00;92.00;;;;;;4212039;28;20187;-72
2022/07/11 00:18:23;;;;;;;3.30;1.97;;;10.00;92.40;;;;;;4211966;28;20412;-72
2022/07/11 00:20:24;;;;;;;2.20;2.00;;;10.00;92.20;;;;;;4202821;28;20185;-72
2022/07/11 00:22:24;;;;;;;2.57;1.93;;;10.00;92.40;;;;;;4194478;28;20498;-72
2022/07/11 00:24:26;;;;;;;3.83;2.20;;;10.00;92.50;;;;;;4195373;28;20196;-72
2022/07/11 00:26:26;;;;;;;2.30;2.00;;;10.00;92.50;;;;;;4195133;28;20194;-73
2022/07/11 00:28:27;;;;;;;3.47;2.20;;;9.90;92.50;;;;;;4194839;28;20267;-72
2022/07/11 00:30:28;;;;;;;2.53;1.70;;;9.90;92.80;;;;;;4195250;28;20207;-72
2022/07/11 00:32:28;;;;;;;2.37;2.03;;;9.90;93.20;;;;;;4194469;28;20268;-73
2022/07/11 00:34:29;;;;;;;3.23;2.13;;;9.80;93.10;;;;;;4193494;28;20218;-72
2022/07/11 00:36:31;;;;;;;1.70;1.60;;;9.80;92.90;;;;;;4195878;28;20183;-73
2022/07/11 00:38:31;;;;;;;2.00;1.90;;;9.80;93.20;;;;;;4198175;28;20560;-73
2022/07/11 00:40:32;;;;;;;2.30;2.10;;;9.80;93.30;;;;;;4198130;28;20182;-73
2022/07/11 00:42:33;;;;;;;2.87;2.00;;;9.80;93.40;;;;;;4197446;28;20204;-73
2022/07/11 00:44:36;;;;;;;5.73;2.13;;;9.70;93.20;;;;;;4198294;28;20638;-73
2022/07/11 00:46:36;;;;;;;2.40;2.07;;;9.70;93.40;;;;;;4198179;28;20222;-74
2022/07/11 00:48:37;;;;;;;1.80;1.70;;;9.60;93.80;;;;;;4198180;28;20420;-73
2022/07/11 00:50:38;;;;;;;3.57;2.20;;;9.60;93.80;;;;;;4197842;28;20718;-72
2022/07/11 00:52:40;;;;;;;2.00;1.90;;;9.60;93.80;;;;;;4197501;28;20181;-73
2022/07/11 00:54:41;;;;;;;2.93;2.00;;;9.50;94.30;;;;;;4197992;28;20275;-73
2022/07/11 00:56:41;;;;;;;1.90;1.80;;;9.60;94.40;;;;;;4198044;28;20424;-73
2022/07/11 00:58:43;;;;;;;2.00;1.80;;;9.60;94.40;;;;;;4197988;28;20221;-73
2022/07/11 01:00:43;;;;;;;1.90;1.80;;;9.60;94.40;;;;;;4197433;28;20173;-75
2022/07/11 01:02:44;;;;;;;3.50;1.90;;;9.50;94.60;;;;;;4197750;28;20417;-72
2022/07/11 01:04:45;;;;;;;2.13;1.93;;;9.60;94.90;;;;;;4197789;28;20697;-73
2022/07/11 01:06:45;;;;;;;2.67;2.30;;;9.50;94.90;;;;;;4197804;28;20182;-73
2022/07/11 01:08:46;;;;;;;2.30;1.90;;;9.50;94.80;;;;;;4197851;28;20185;-72
2022/07/11 01:10:47;;;;;;;3.33;2.13;;;9.50;94.90;;;;;;4195809;28;20261;-74
2022/07/11 01:12:48;;;;;;;1.87;1.73;;;9.40;94.80;;;;;;4197735;28;20176;-72
2022/07/11 01:14:57;;;;;;;2.90;2.10;;;9.40;95.10;;;;;;4197519;28;20280;-74
2022/07/11 01:16:58;;;;;;;1.80;1.70;;;9.40;95.60;;;;;;4197552;28;20405;-74
2022/07/11 01:18:58;;;;;;;3.47;1.77;;;9.30;96.10;;;;;;4197505;28;20485;-74
2022/07/11 01:20:59;;;;;;;3.57;2.07;;;9.40;95.80;;;;;;4196826;28;20221;-74
2022/07/11 01:23:06;;;;;;;2.97;1.90;;;9.40;95.20;;;;;;4197567;28;20189;-74
2022/07/11 01:25:07;;;;;;;2.27;2.07;;;9.40;95.40;;;;;;4197378;28;20874;-74
2022/07/11 01:27:08;;;;;;;2.43;1.70;;;9.30;95.60;;;;;;4197544;28;20413;-74
2022/07/11 01:29:11;;;;;;;3.97;3.07;;;9.30;95.80;;;;;;4197407;28;20173;-74
2022/07/11 01:31:12;;;;;;;3.13;2.50;;;9.20;96.30;;;;;;4196836;28;20205;-72
2022/07/11 01:33:13;;;;;;;3.37;1.77;;;9.30;96.30;;;;;;4197521;28;20493;-75
2022/07/11 01:35:13;;;;;;;5.00;2.27;;;9.20;96.20;;;;;;4197627;28;20407;-74
2022/07/11 01:37:14;;;;;;;2.20;2.00;;;9.20;96.20;;;;;;4197692;28;20203;-74
2022/07/11 01:39:14;;;;;;;3.13;2.10;;;9.20;96.70;;;;;;4197573;28;20172;-74
2022/07/11 01:41:15;;;;;;;2.30;2.10;;;9.20;96.80;;;;;;4197204;28;20596;-74
2022/07/11 01:43:15;;;;;;;2.40;1.83;;;9.20;96.90;;;;;;4198299;28;20200;-74
2022/07/11 01:45:16;;;;;;;2.27;2.07;;;9.20;96.50;;;;;;4197736;28;20211;-74
2022/07/11 01:47:17;;;;;;;2.20;1.73;;;9.20;96.90;;;;;;4197196;28;20227;-74
2022/07/11 01:49:17;;;;;;;3.17;2.03;;;9.10;97.20;;;;;;4198911;28;20184;-74
2022/07/11 01:51:18;;;;;;;2.93;2.10;;;9.10;97.60;;;;;;4213282;28;20179;-74
2022/07/11 01:53:18;;;;;;;3.63;1.90;;;9.10;95.80;;;;;;4214234;28;20209;-74
2022/07/11 01:55:19;;;;;;;2.20;1.80;;;9.00;96.00;;;;;;4214172;28;20179;-74
2022/07/11 01:57:20;;;;;;;2.70;1.90;;;9.00;96.00;;;;;;4213909;28;20232;-74
2022/07/11 01:59:20;;;;;;;2.00;1.80;;;9.00;96.00;;;;;;4214044;28;20244;-75
2022/07/11 02:01:21;;;;;;;3.37;2.20;;;9.00;95.90;;;;;;4213241;28;20686;-74
2022/07/11 02:03:21;;;;;;;3.93;2.03;;;9.00;96.50;;;;;;4213838;28;20312;-74
2022/07/11 02:05:22;;;;;;;3.77;1.90;;;9.00;95.90;;;;;;4213925;28;20237;-74
2022/07/11 02:09:42;;;;;;;2.27;2.07;;;9.00;96.20;;;;;;4213745;28;20866;-74
2022/07/11 02:11:42;;;;;;;3.53;2.30;;;8.90;96.40;;;;;;4213289;28;20496;-75
2022/07/11 02:13:43;;;;;;;2.23;2.03;;;8.80;96.60;;;;;;4213528;28;20202;-75
2022/07/11 02:15:44;;;;;;;2.50;2.27;;;8.80;96.70;;;;;;4213875;28;20227;-75
2022/07/11 02:17:45;;;;;;;2.47;2.00;;;8.80;97.00;;;;;;4212370;28;20676;-74
2022/07/11 02:19:45;;;;;;;3.20;2.00;;;8.90;97.00;;;;;;4213173;28;20446;-74
2022/07/11 02:21:46;;;;;;;2.30;1.80;;;8.80;96.60;;;;;;4198703;28;20196;-74
2022/07/11 02:23:46;;;;;;;1.77;1.67;;;8.80;96.90;;;;;;4196675;28;20200;-74
2022/07/11 02:25:48;;;;;;;4.40;2.00;;;8.80;97.10;;;;;;4193925;28;20171;-75
2022/07/11 02:27:49;;;;;;;2.47;2.10;;;8.70;97.40;;;;;;4196716;28;20179;-75
2022/07/11 02:29:50;;;;;;;3.37;2.30;;;8.70;97.30;;;;;;4196494;28;20461;-75
2022/07/11 02:31:51;;;;;;;4.57;2.23;;;8.70;97.30;;;;;;4196142;28;20831;-76
2022/07/11 02:33:51;;;;;;;4.00;1.97;;;8.70;96.90;;;;;;4196630;28;21136;-75
2022/07/11 02:35:52;;;;;;;2.20;2.00;;;8.70;97.50;;;;;;4197476;28;20189;-74
2022/07/11 02:37:52;;;;;;;3.20;2.33;;;8.70;97.40;;;;;;4197041;28;20200;-75
2022/07/11 02:39:53;;;;;;;3.10;2.03;;;8.70;97.40;;;;;;4196831;28;20228;-75
2022/07/11 02:41:53;;;;;;;2.70;2.00;;;8.60;97.20;;;;;;4193409;28;20274;-75
2022/07/11 02:43:54;;;;;;;3.37;2.00;;;8.60;97.50;;;;;;4206169;28;20206;-74
2022/07/11 02:45:55;;;;;;;2.53;2.30;;;8.50;97.10;;;;;;4212890;28;20183;-75
2022/07/11 02:47:56;;;;;;;2.40;2.13;;;8.50;97.30;;;;;;4213139;28;20175;-75
2022/07/11 02:49:57;;;;;;;2.33;2.13;;;8.50;97.40;;;;;;4212810;28;20497;-75
2022/07/11 02:51:57;;;;;;;3.37;2.47;;;8.50;97.60;;;;;;4212115;28;20270;-75
2022/07/11 02:53:58;;;;;;;2.50;2.30;;;8.50;97.80;;;;;;4212847;28;20187;-75
2022/07/11 02:55:58;;;;;;;2.73;2.07;;;8.50;97.70;;;;;;4212882;28;20179;-75
2022/07/11 02:57:59;;;;;;;5.00;2.43;;;8.50;97.80;;;;;;4212933;28;20219;-75
2022/07/11 02:59:59;;;;;;;2.70;2.50;;;8.50;98.00;;;;;;4212409;28;20228;-75
2022/07/11 03:02:00;;;;;;;3.43;2.50;;;8.40;98.10;;;;;;4211932;28;20190;-75
2022/07/11 03:04:00;;;;;;;4.23;2.57;;;8.40;98.50;;;;;;4212605;28;20738;-75
2022/07/11 03:06:01;;;;;;;2.60;2.40;;;8.40;98.80;;;;;;4212687;28;20180;-75
2022/07/11 03:08:02;;;;;;;2.93;2.33;;;8.40;98.90;;;;;;4212527;28;20721;-75
2022/07/11 03:10:03;;;;;;;5.03;2.57;;;8.40;98.90;;;;;;4211140;28;20755;-75
2022/07/11 03:12:04;;;;;;;2.73;2.50;;;8.40;99.10;;;;;;4211707;28;20619;-75
2022/07/11 03:14:04;;;;;;;2.83;2.20;;;8.40;98.80;;;;;;4212508;28;20294;-75
2022/07/11 03:16:05;;;;;;;2.60;2.30;;;8.30;99.30;;;;;;4212586;28;20542;-75
2022/07/11 03:18:07;;;;;;;3.60;3.10;;;8.40;99.40;;;;;;4212419;28;20176;-75
2022/07/11 03:20:08;;;;;;;4.03;2.33;;;8.40;99.40;;;;;;4212384;28;20258;-74
2022/07/11 03:22:09;;;;;;;4.70;2.50;;;8.40;99.30;;;;;;4211474;28;20907;-75
2022/07/11 03:24:09;;;;;;;4.43;2.57;;;8.40;99.10;;;;;;4212435;28;20464;-75
2022/07/11 03:26:11;;;;;;;2.60;2.40;;;8.30;99.10;;;;;;4212401;28;20194;-75
2022/07/11 03:28:12;;;;;;;3.07;2.47;;;8.30;99.30;;;;;;4212378;28;20231;-75
2022/07/11 03:30:14;;;;;;;3.30;2.37;;;8.20;99.30;;;;;;4212331;28;21056;-75
2022/07/11 03:32:15;;;;;;;3.13;2.10;;;8.20;99.80;;;;;;4211674;28;20440;-75
2022/07/11 03:34:16;;;;;;;2.73;2.23;;;8.20;99.90;;;;;;4212285;28;20425;-75
2022/07/11 03:36:17;;;;;;;3.07;2.67;;;8.20;99.90;;;;;;4212732;28;20408;-75
2022/07/11 03:38:19;;;;;;;4.67;2.27;;;8.30;99.90;;;;;;4212566;28;20179;-75
2022/07/11 03:40:19;;;;;;;3.17;2.80;;;8.30;99.90;;;;;;4214837;28;20544;-75
2022/07/11 03:42:20;;;;;;;3.80;2.73;;;8.40;99.90;;;;;;4213823;28;20434;-74
2022/07/11 03:44:20;;;;;;;2.90;2.60;;;8.40;99.90;;;;;;4211193;28;20195;-75
2022/07/11 03:46:21;;;;;;;35.20;4.67;;;8.50;99.90;;;;;;4212261;28;20183;-75
2022/07/11 03:48:22;;;;;;;8.33;2.70;;;8.50;99.90;;;;;;4212317;28;20167;-75
2022/07/11 03:50:22;;;;;;;11.40;2.87;;;8.50;99.90;;;;;;4211902;28;20206;-75
2022/07/11 03:52:23;;;;;;;8.13;2.80;;;8.50;99.80;;;;;;4210165;28;20179;-75
2022/07/11 03:54:23;;;;;;;6.87;2.47;;;8.50;99.60;;;;;;4211500;28;20199;-75
2022/07/11 03:56:24;;;;;;;7.00;2.10;;;8.60;99.60;;;;;;4212061;28;20658;-75
2022/07/11 03:58:25;;;;;;;7.80;2.30;;;8.60;99.70;;;;;;4211998;28;20301;-75
2022/07/11 04:00:25;;;;;;;4.30;2.43;;;8.60;99.30;;;;;;4211930;28;20208;-75
2022/07/11 04:02:26;;;;;;;5.50;2.40;;;8.60;99.40;;;;;;4211231;28;20183;-75
2022/07/11 04:04:26;;;;;;;5.17;2.47;;;8.50;99.00;;;;;;4212149;28;20275;-75
2022/07/11 04:06:27;;;;;;;6.70;2.87;;;8.50;99.70;;;;;;4211793;28;20692;-75
2022/07/11 04:08:27;;;;;;;2.63;2.43;;;8.50;99.90;;;;;;4211794;28;20191;-75
2022/07/11 04:10:28;;;;;;;3.90;2.30;;;8.50;99.90;;;;;;4211635;28;20789;-75
2022/07/11 04:12:29;;;;;;;2.93;2.17;;;8.60;99.40;;;;;;4213894;28;20814;-74
2022/07/11 04:14:29;;;;;;;3.07;2.00;;;8.70;99.00;;;;;;4218007;28;20210;-75
2022/07/11 04:16:30;;;;;;;4.17;2.30;;;8.70;98.30;;;;;;4218666;28;20528;-76
2022/07/11 04:18:30;;;;;;;2.83;2.40;;;8.70;98.30;;;;;;4218762;28;20677;-75
2022/07/11 04:20:31;;;;;;;2.77;2.10;;;8.60;98.70;;;;;;4218431;28;20202;-75
2022/07/11 04:22:31;;;;;;;2.27;2.07;;;8.70;99.10;;;;;;4215104;28;20676;-75
2022/07/11 04:24:32;;;;;;;4.20;2.30;;;8.70;99.20;;;;;;4218462;28;20275;-75
2022/07/11 04:26:32;;;;;;;3.67;2.20;;;8.70;99.10;;;;;;4218909;28;20179;-75
2022/07/11 04:28:33;;;;;;;2.30;2.10;;;8.70;98.70;;;;;;4218754;28;20179;-75
2022/07/11 04:30:34;;;;;;;3.07;2.50;;;8.80;98.70;;;;;;4217248;28;20357;-75
2022/07/11 04:32:35;;;;;;;3.70;2.47;;;8.80;98.20;;;;;;4217959;28;21124;-75
2022/07/11 04:34:36;;;;;;;3.63;2.27;;;8.80;98.10;;;;;;4218658;28;20539;-75
2022/07/11 04:36:36;;;;;;;4.90;2.67;;;8.70;98.60;;;;;;4218645;28;20491;-75
2022/07/11 04:38:37;;;;;;;3.80;2.53;;;8.70;99.10;;;;;;4218701;28;20218;-75
2022/07/11 04:40:37;;;;;;;3.00;2.20;;;8.70;99.10;;;;;;4218547;28;20277;-75
2022/07/11 04:42:38;;;;;;;4.77;2.53;;;8.70;99.30;;;;;;4217927;28;20784;-75
2022/07/11 04:44:38;;;;;;;3.53;2.20;;;8.70;99.60;;;;;;4218460;28;20720;-75
2022/07/11 04:46:39;;;;;;;3.67;2.13;;;8.80;99.40;;;;;;4218542;28;20175;-75
2022/07/11 04:48:40;;;;;;;3.20;2.20;;;8.80;99.40;;;;;;4218787;28;20221;-75
2022/07/11 04:50:44;;;;;;;4.87;2.87;;;8.90;99.30;;;;;;4216721;28;20301;-76
2022/07/11 04:52:45;;;;;;;2.37;1.90;;;8.90;99.30;;;;;;4218242;28;20203;-75
2022/07/11 04:54:45;;;;;;;2.77;2.17;;;8.90;99.40;;;;;;4218350;28;20948;-74
2022/07/11 04:56:46;;;;;;;2.30;2.10;;;8.90;99.60;;;;;;4218159;28;20194;-75
2022/07/11 04:58:46;;;;;;;2.40;2.17;;;8.90;99.80;;;;;;4218343;28;20725;-75
2022/07/11 05:00:47;;;;;;;2.30;2.10;;;8.90;99.80;;;;;;4217532;28;20655;-75
2022/07/11 05:02:47;;;;;;;2.60;2.10;;;9.00;99.90;;;;;;4218032;28;20199;-74
2022/07/11 05:04:48;;;;;;;3.93;2.30;;;9.00;99.90;;;;;;4218070;28;20199;-75
2022/07/11 05:06:48;;;;;;;3.20;2.13;;;9.10;99.90;;;;;;4218270;28;20219;-75
2022/07/11 05:08:49;;;;;;;2.37;2.10;;;9.20;99.90;;;;;;4215734;28;20186;-75
2022/07/11 05:10:50;;;;;;;2.50;2.30;;;9.20;99.90;;;;;;4213496;28;20230;-75
2022/07/11 05:12:51;;;;;;;2.90;2.23;;;9.30;99.80;;;;;;4214644;28;20189;-75
2022/07/11 05:14:51;;;;;;;4.73;2.10;;;9.30;99.70;;;;;;4214432;28;20491;-74
2022/07/11 05:16:52;;;;;;;2.97;2.10;;;9.30;99.90;;;;;;4214320;28;20186;-75
2022/07/11 05:18:53;;;;;;;2.47;2.10;;;9.40;99.90;;;;;;4214384;28;20632;-74
2022/07/11 05:20:53;;;;;;;5.20;2.70;;;9.50;99.90;;;;;;4213369;28;20183;-74
2022/07/11 05:22:54;;;;;;;2.40;2.20;;;9.50;99.80;;;;;;4213875;28;20276;-74
2022/07/11 05:24:54;;;;;;;4.03;2.47;;;9.50;99.60;;;;;;4214095;28;20204;-74
2022/07/11 05:26:55;;;;;;;5.70;2.50;;;9.60;99.50;;;;;;4214186;28;20629;-74
2022/07/11 05:28:56;;;;;;;2.67;2.33;;;9.70;99.10;;;;;;4214071;28;20181;-74
2022/07/11 05:30:56;;;;;;;2.70;2.50;;;9.60;99.00;;;;;;4213047;28;20252;-74
2022/07/11 05:32:57;;;;;;;2.17;1.90;;;9.70;99.40;;;;;;4214040;28;20185;-74
2022/07/11 05:34:58;;;;;;;4.07;2.40;;;9.80;99.40;;;;;;4210560;28;20209;-74
2022/07/11 05:36:58;;;;;;;3.67;2.07;;;9.80;99.40;;;;;;4213948;28;20186;-74
2022/07/11 05:38:59;;;;;;;2.60;2.10;;;9.90;99.90;;;;;;4218283;28;20663;-74
2022/07/11 05:40:59;;;;;;;2.37;1.73;;;9.90;99.90;;;;;;4215395;28;20190;-74
2022/07/11 05:43:00;;;;;;;2.20;1.90;;;10.00;99.70;;;;;;4214421;28;20295;-74
2022/07/11 05:45:01;;;;;;;3.43;2.20;;;10.20;99.80;;;;;;4213853;28;20211;-75
2022/07/11 05:47:03;;;;;;;3.10;2.40;;;10.30;99.60;;;;;;4214199;28;20187;-75
2022/07/11 05:49:03;;;;;;;5.07;2.63;;;10.40;99.30;;;;;;4214069;28;20186;-75
2022/07/11 05:51:04;;;;;;;3.67;3.00;;;10.40;98.90;;;;;;4213368;28;20582;-75
2022/07/11 05:53:04;;;;;;;4.07;2.87;;;10.60;98.70;;;;;;4213873;28;20239;-74
2022/07/11 05:55:06;;;;;;;6.17;2.60;;;10.70;98.60;;;;;;4213913;28;20672;-75
2022/07/11 05:57:06;;;;;;;4.47;2.60;;;10.80;98.30;;;;;;4214705;28;20259;-75
2022/07/11 05:59:07;;;;;;;5.50;2.80;;;11.00;98.90;;;;;;4214566;28;20186;-75
2022/07/11 06:01:08;;;;;;;3.57;2.80;;;11.20;98.60;;;;;;4215247;28;20182;-75
2022/07/11 06:03:08;;;;;;;4.00;2.43;;;11.30;97.90;;;;;;4213995;28;20657;-74
2022/07/11 06:05:11;;;;;;;6.33;2.83;;;11.30;98.20;;;;;;4213838;28;20206;-74
2022/07/11 06:07:11;;;;;;;4.17;3.23;;;11.30;98.20;;;;;;4213637;28;20268;-74
2022/07/11 06:09:12;;;;;;;7.90;3.70;;;11.40;99.30;;;;;;4213587;28;20183;-75
2022/07/11 06:11:15;;;;;;;4.70;3.10;;;11.60;98.50;;;;;;4212939;28;20279;-75
2022/07/11 06:13:15;;;;;;;3.97;2.50;;;11.60;97.90;;;;;;4213582;28;20182;-74
2022/07/11 06:15:16;;;;;;;5.63;3.53;;;11.70;97.70;;;;;;4212078;28;20959;-74
2022/07/11 06:17:16;;;;;;;3.33;2.77;;;11.90;97.90;;;;;;4198674;28;20175;-74
2022/07/11 06:19:17;;;;;;;4.90;3.03;;;12.00;97.00;;;;;;4196727;28;20184;-74
2022/07/11 06:21:20;;;;;;;7.07;3.30;;;12.10;97.40;;;;;;4196056;28;20192;-75
2022/07/11 06:23:20;;;;;;;6.50;2.90;;;12.30;96.90;;;;;;4196819;28;20292;-74
2022/07/11 06:25:21;;;;;;;4.03;2.60;;;12.30;96.10;;;;;;4196791;28;20184;-74
2022/07/11 06:27:22;;;;;;;5.23;3.90;;;12.30;96.70;;;;;;4196752;28;20206;-75
2022/07/11 06:29:22;;;;;;;4.00;2.97;;;12.40;96.60;;;;;;4197195;28;20186;-75
2022/07/11 06:31:23;;;;;;;4.23;2.73;;;12.40;95.70;;;;;;4195703;28;20210;-75
2022/07/11 06:33:24;;;;;;;4.23;2.90;;;12.50;96.30;;;;;;4196199;28;20555;-75
2022/07/11 06:35:25;;;;;;;4.67;3.47;;;12.50;96.00;;;;;;4194460;28;20450;-75
2022/07/11 06:37:26;;;;;;;5.03;3.33;;;12.70;95.50;;;;;;4196240;28;20224;-75
2022/07/11 06:39:27;;;;;;;4.87;2.90;;;12.90;94.50;;;;;;4196350;28;20182;-75
2022/07/11 06:41:27;;;;;;;5.83;3.87;;;13.10;94.00;;;;;;4195644;28;20175;-75
2022/07/11 06:43:28;;;;;;;4.23;3.50;;;13.10;93.90;;;;;;4195347;28;20200;-72
2022/07/11 06:45:29;;;;;;;3.57;2.80;;;13.20;93.20;;;;;;4196981;28;20187;-72
2022/07/11 06:47:30;;;;;;;4.43;2.97;;;13.30;92.70;;;;;;4205525;28;20544;-76
2022/07/11 06:49:30;;;;;;;3.40;3.00;;;13.20;93.50;;;;;;4208807;28;20183;-75
2022/07/11 06:51:31;;;;;;;3.37;2.90;;;13.30;92.80;;;;;;4206910;28;20549;-75
2022/07/11 06:53:31;;;;;;;5.10;3.43;;;13.40;92.50;;;;;;4207706;28;20203;-75
2022/07/11 06:55:33;;;;;;;3.23;2.43;;;13.50;91.60;;;;;;4207990;28;20187;-75
2022/07/11 06:57:33;;;;;;;3.63;2.60;;;13.60;90.90;;;;;;4208353;28;20670;-75
2022/07/11 06:59:34;;;;;;;3.67;2.93;;;13.80;90.20;;;;;;4209252;28;20262;-75
2022/07/11 07:01:34;;;;;;;3.63;2.40;;;13.80;88.20;;;;;;4207850;28;20183;-75
2022/07/11 07:03:35;;;;;;;3.70;1.90;;;13.90;88.20;;;;;;4209041;28;20656;-75
2022/07/11 07:05:35;;;;;;;2.20;1.97;;;14.00;89.30;;;;;;4207631;28;20182;-73
2022/07/11 07:07:36;;;;;;;1.70;1.60;;;14.20;84.90;;;;;;4189923;28;20184;-76
2022/07/11 07:09:37;;;;;;;3.17;2.20;;;14.30;79.60;;;;;;4209583;28;20246;-77
2022/07/11 07:11:37;;;;;;;3.73;2.27;;;14.40;79.10;;;;;;4207924;28;20187;-77
2022/07/11 07:13:38;;;;;;;1.97;1.63;;;14.50;76.90;;;;;;4209157;28;20202;-76
2022/07/11 07:15:38;;;;;;;1.57;1.47;;;14.50;76.70;;;;;;4207367;28;20284;-76
2022/07/11 07:17:39;;;;;;;1.63;1.10;;;14.60;75.50;;;;;;4208690;28;20175;-74
2022/07/11 07:19:40;;;;;;;1.20;1.10;;;14.70;72.80;;;;;;4207473;28;20179;-77
2022/07/11 07:21:40;;;;;;;2.03;1.30;;;15.00;73.20;;;;;;4210840;28;20786;-76
2022/07/11 07:23:41;;;;;;;1.30;1.20;;;15.10;70.10;;;;;;4221675;28;20203;-78
2022/07/11 07:25:42;;;;;;;1.67;1.20;;;15.10;70.20;;;;;;4210260;28;20176;-75
2022/07/11 07:27:43;;;;;;;1.50;1.00;;;15.10;68.00;;;;;;4210533;28;20266;-79
2022/07/11 07:29:43;;;;;;;0.90;0.90;;;15.10;69.70;;;;;;4211218;28;20262;-75
2022/07/11 07:31:44;;;;;;;1.20;1.10;;;15.20;68.20;;;;;;4207956;28;20198;-75
2022/07/11 07:33:44;;;;;;;1.00;1.00;;;15.20;67.00;;;;;;4207449;28;20203;-76
2022/07/11 07:35:45;;;;;;;2.00;1.37;;;15.20;67.40;;;;;;4206726;28;20236;-75
2022/07/11 07:37:45;;;;;;;1.60;1.13;;;15.40;68.30;;;;;;4215780;28;20205;-76
2022/07/11 07:39:46;;;;;;;2.20;1.30;;;15.60;67.10;;;;;;4210101;28;20787;-73
2022/07/11 07:41:46;;;;;;;1.20;1.10;;;15.60;67.60;;;;;;4208462;28;20668;-76
2022/07/11 07:43:51;;;;;;;2.23;1.20;;;15.70;67.90;;;;;;4207733;28;20206;-76
2022/07/11 07:45:52;;;;;;;1.27;0.90;;;15.80;66.60;;;;;;4210265;28;20257;-77
2022/07/11 07:47:52;;;;;;;4.40;4.20;;;16.00;66.90;;;;;;4209081;28;20713;-74
2022/07/11 07:49:53;;;;;;;1.10;0.93;;;16.00;65.30;;;;;;4203400;28;20206;-77
2022/07/11 07:51:53;;;;;;;1.40;1.30;;;16.00;66.70;;;;;;4209817;28;20218;-79
2022/07/11 07:53:54;;;;;;;1.50;1.27;;;16.00;66.10;;;;;;4211015;28;20209;-78
2022/07/11 07:55:55;;;;;;;1.80;1.10;;;16.40;65.10;;;;;;4209700;28;20179;-75
2022/07/11 07:57:55;;;;;;;1.10;1.00;;;16.50;63.70;;;;;;4207793;28;20286;-75
2022/07/11 08:01:34;;;;;;;1.30;1.20;;;16.60;63.70;;;;;;4208363;28;20193;-76
2022/07/11 08:02:16;;;;;;;2.13;1.10;;;16.70;65.70;;;;;;4207560;28;20225;-78
2022/07/11 08:04:17;;;;;;;2.63;2.50;;;16.50;62.70;;;;;;4208191;28;20198;-80
2022/07/11 08:06:18;;;;;;;0.90;0.90;;;16.40;63.20;;;;;;4206944;28;20676;-77
2022/07/11 08:08:19;;;;;;;1.00;0.90;;;16.40;63.00;;;;;;4208751;28;20198;-77
2022/07/11 08:10:19;;;;;;;0.87;0.87;;;16.40;62.40;;;;;;4207275;28;20764;-77
2022/07/11 08:12:20;;;;;;;0.80;0.80;;;16.40;62.80;;;;;;4206864;28;20179;-75
2022/07/11 08:14:22;;;;;;;0.80;0.80;;;16.50;61.30;;;;;;4208023;28;20203;-74
2022/07/11 08:16:22;;;;;;;1.10;0.80;;;16.70;62.70;;;;;;4206700;28;20183;-74
2022/07/11 08:18:23;;;;;;;0.77;0.77;;;17.00;63.50;;;;;;4207697;28;20253;-73
2022/07/11 08:20:23;;;;;;;0.70;0.70;;;16.90;60.80;;;;;;4207856;28;20309;-74
2022/07/11 08:22:25;;;;;;;1.63;1.53;;;16.90;60.00;;;;;;4206134;28;20255;-75
2022/07/11 08:24:25;;;;;;;1.13;1.13;;;17.00;58.50;;;;;;4207672;28;20689;-79
2022/07/11 08:26:27;;;;;;;1.00;0.80;;;16.90;58.80;;;;;;4207793;28;20215;-80
2022/07/11 08:28:27;;;;;;;0.60;0.60;;;17.10;58.30;;;;;;4207027;28;20211;-78
2022/07/11 08:30:28;;;;;;;1.50;1.20;;;17.30;57.70;;;;;;4208031;28;20218;-76
2022/07/11 08:32:28;;;;;;;0.80;0.80;;;17.20;58.90;;;;;;4207339;28;20179;-75
2022/07/11 08:34:29;;;;;;;1.07;0.93;;;17.20;57.60;;;;;;4207477;28;20248;-72
2022/07/11 08:36:30;;;;;;;1.17;1.13;;;17.50;59.00;;;;;;4206735;28;20194;-73
2022/07/11 08:38:30;;;;;;;0.90;0.90;;;17.40;58.40;;;;;;4206845;28;20309;-73
2022/07/11 08:40:31;;;;;;;0.80;0.80;;;17.30;59.50;;;;;;4207704;28;20774;-75
2022/07/11 08:42:37;;;;;;;1.07;1.07;;;17.50;57.80;;;;;;4205754;28;20270;-77
2022/07/11 08:44:37;;;;;;;0.80;0.80;;;17.50;57.60;;;;;;4206894;28;20203;-73
2022/07/11 08:46:42;;;;;;;0.80;0.80;;;17.50;57.80;;;;;;4205861;28;20221;-80
2022/07/11 08:48:44;;;;;;;0.80;0.80;;;17.50;57.00;;;;;;4206798;28;20626;-75
2022/07/11 08:50:45;;;;;;;2.40;2.20;;;17.60;57.30;;;;;;4206218;28;20203;-75
2022/07/11 08:52:45;;;;;;;1.20;1.20;;;17.70;57.70;;;;;;4207508;28;20895;-76
2022/07/11 08:54:46;;;;;;;1.37;0.77;;;17.70;57.60;;;;;;4209726;28;20199;-75
2022/07/11 08:56:49;;;;;;;0.70;0.70;;;17.70;57.20;;;;;;4206145;28;20653;-75
2022/07/11 08:58:50;;;;;;;2.70;0.93;;;17.50;58.70;;;;;;4210261;28;20163;-77
2022/07/11 09:00:51;;;;;;;0.90;0.87;;;17.80;57.60;;;;;;4208742;28;20658;-80
2022/07/11 09:02:53;;;;;;;1.60;1.50;;;18.00;58.00;;;;;;4211716;28;20193;-76
2022/07/11 09:04:54;;;;;;;1.40;1.30;;;18.10;56.60;;;;;;4210781;28;20231;-73
2022/07/11 09:06:54;;;;;;;0.80;0.80;;;17.90;56.00;;;;;;4210196;28;20252;-75
2022/07/11 09:08:59;;;;;;;2.23;2.13;;;17.90;58.90;;;;;;4210006;28;20191;-78
2022/07/11 09:11:00;;;;;;;0.90;0.90;;;17.90;56.90;;;;;;4209660;28;20246;-76
2022/07/11 09:13:06;;;;;;;3.03;2.83;;;17.90;57.40;;;;;;4209709;28;20193;-77
2022/07/11 09:15:07;;;;;;;3.10;2.97;;;18.00;57.50;;;;;;4213424;28;20189;-69
2022/07/11 09:17:08;;;;;;;1.20;1.10;;;18.10;57.10;;;;;;4213891;28;20278;-76
2022/07/11 09:19:23;;;;;;;0.90;0.90;;;18.30;56.50;;;;;;4215746;28;20213;-74
2022/07/11 09:26:04;;;;;;;1.57;1.47;;;18.60;55.70;;;;;;4215881;28;20240;-78
2022/07/11 09:28:05;;;;;;;1.40;1.30;;;18.00;57.60;;;;;;4215356;28;20183;-81
2022/07/11 09:30:28;;;;;;;1.80;1.70;;;18.40;58.50;;;;;;4211951;28;20799;-75
2022/07/11 09:32:29;;;;;;;1.10;1.10;;;18.80;56.00;;;;;;4211779;28;20189;-78
2022/07/11 09:34:30;;;;;;;3.20;3.00;;;19.30;55.80;;;;;;4223713;28;20228;-76
2022/07/11 09:36:57;;;;;;;5.70;5.33;;;19.30;53.90;;;;;;4217945;28;20213;-76
2022/07/11 09:38:58;;;;;;;2.27;1.50;;;18.90;55.80;;;;;;4212228;28;20199;-74
2022/07/11 09:41:10;;;;;;;2.37;2.27;;;19.00;55.30;;;;;;4212802;28;20929;-75
2022/07/11 09:43:11;;;;;;;1.63;1.53;;;19.20;54.70;;;;;;4214656;28;20190;-76
2022/07/11 09:45:12;;;;;;;1.80;1.50;;;19.20;54.10;;;;;;4213478;28;20731;-75
2022/07/11 09:47:13;;;;;;;4.33;4.13;;;19.00;55.30;;;;;;4213636;28;20183;-74
2022/07/11 09:49:14;;;;;;;1.80;1.50;;;19.50;54.20;;;;;;4213769;28;20183;-77
2022/07/11 09:51:20;;;;;;;2.20;1.77;;;19.60;53.50;;;;;;4213958;28;20214;-76
2022/07/11 09:53:20;;;;;;;1.60;1.20;;;19.70;52.80;;;;;;4211411;28;20179;-75
2022/07/11 09:55:21;;;;;;;2.17;1.33;;;19.80;52.90;;;;;;4212339;28;20269;-74
2022/07/11 09:57:35;;;;;;;2.00;1.80;;;20.10;53.40;;;;;;4212863;28;20186;-75
2022/07/11 09:59:37;;;;;;;5.37;5.10;;;20.60;51.00;;;;;;4212454;28;20187;-77
2022/07/11 10:01:39;;;;;;;7.23;6.83;;;20.40;51.30;;;;;;4210004;28;20236;-77
2022/07/11 10:03:39;;;;;;;2.83;2.70;;;20.10;51.40;;;;;;4214633;28;20677;-76
2022/07/11 10:05:40;;;;;;;7.47;7.07;;;20.40;52.70;;;;;;4211938;28;20291;-76
2022/07/11 10:07:41;;;;;;;2.40;2.10;;;20.50;50.90;;;;;;4211897;28;20183;-76
2022/07/11 10:09:41;;;;;;;1.97;1.70;;;20.40;50.60;;;;;;4210617;28;20243;-76
2022/07/11 10:11:42;;;;;;;4.63;4.43;;;20.60;51.10;;;;;;4210667;28;20187;-78
2022/07/11 10:13:43;;;;;;;1.20;1.13;;;20.50;50.30;;;;;;4210575;28;20230;-74
2022/07/11 10:15:47;;;;;;;1.10;1.10;;;20.90;50.40;;;;;;4211916;28;20183;-82
2022/07/11 10:18:03;;;;;;;1.60;1.50;;;21.30;48.90;;;;;;4211637;28;20204;-78
2022/07/11 10:20:32;;;;;;;1.80;1.70;;;20.80;49.40;;;;;;4209309;28;20409;-77
2022/07/11 10:22:45;;;;;;;11.30;10.70;;;20.80;50.50;;;;;;4208493;28;20195;-76
2022/07/11 10:25:04;;;;;;;3.80;3.50;;;20.50;48.90;;;;;;4209567;28;21871;-76
2022/07/11 10:27:23;;;;;;;3.73;3.17;;;20.60;50.40;;;;;;4210829;28;20179;-80
2022/07/11 10:29:35;;;;;;;1.50;1.40;;;21.10;48.00;;;;;;4208619;28;20187;-77
2022/07/11 10:31:36;;;;;;;2.07;1.30;;;20.80;52.80;;;;;;4206179;28;20229;-76
2022/07/11 10:34:04;;;;;;;16.60;15.70;;;21.20;48.90;;;;;;4208202;28;20235;-78
2022/07/11 10:36:05;;;;;;;1.93;1.77;;;20.80;49.80;;;;;;4208241;28;20175;-75
2022/07/11 10:38:06;;;;;;;5.07;4.80;;;21.50;48.20;;;;;;4209144;28;20186;-77
2022/07/11 10:40:08;;;;;;;2.97;1.60;;;21.20;49.40;;;;;;4208725;28;20190;-76
2022/07/11 10:42:20;;;;;;;1.83;1.60;;;22.20;48.20;;;;;;4209345;28;20190;-75